Time;durP1;ratioP1;P1;durP2;ratioP2;P2;SDS_P1;SDS_P2;PMS_P1;PMS_P2;Temp;Humidity;BMP_temperature;BMP_pressure;BME280_temperature;BME280_humidity;BME280_pressure;Samples;Min_cycle;Max_cycle;Signal;HPM_P1;HPM_P2
2021/12/21 00:02:05;;;;;;;27.60;18.95;;;;;;;;;;6186506;23;20396;-74
2021/12/21 00:04:31;;;;;;;38.38;25.05;;;;;;;;;;6163679;23;21031;-75
2021/12/21 00:06:57;;;;;;;39.38;24.77;;;;;;;;;;6163630;23;20366;-76
2021/12/21 00:09:23;;;;;;;30.63;20.33;;;;;;;;;;6170539;23;20416;-76
2021/12/21 00:11:50;;;;;;;24.45;16.83;;;;;;;;;;6167539;23;20370;-75
2021/12/21 00:14:36;;;;;;;26.55;17.40;;;;;;;;;;6141912;23;20369;-76
2021/12/21 00:17:10;;;;;;;25.73;17.38;;;;;;;;;;6169043;23;20378;-76
2021/12/21 00:22:09;;;;;;;19.58;12.77;;;;;;;;;;6187385;23;20380;-76
2021/12/21 00:24:45;;;;;;;18.73;12.00;;;;;;;;;;6187053;23;20999;-76
2021/12/21 00:27:13;;;;;;;18.00;10.88;;;;;;;;;;6161646;23;20397;-76
2021/12/21 00:29:39;;;;;;;16.75;10.82;;;;;;;;;;6162888;23;20412;-75
2021/12/21 00:32:05;;;;;;;16.05;10.00;;;;;;;;;;6161660;23;20859;-76
2021/12/21 00:34:31;;;;;;;15.93;10.07;;;;;;;;;;6187394;23;20393;-76
2021/12/21 00:36:58;;;;;;;17.02;9.70;;;;;;;;;;6187775;23;20930;-75
2021/12/21 00:39:24;;;;;;;15.90;9.55;;;;;;;;;;6163103;23;20365;-75
2021/12/21 00:41:50;;;;;;;15.87;9.50;;;;;;;;;;6187742;23;20365;-75
2021/12/21 00:44:16;;;;;;;13.65;8.40;;;;;;;;;;6186210;23;20377;-75
2021/12/21 00:46:44;;;;;;;14.03;8.53;;;;;;;;;;6163603;23;20397;-75
2021/12/21 00:49:17;;;;;;;13.00;8.10;;;;;;;;;;6162167;23;20381;-76
2021/12/21 00:51:44;;;;;;;12.90;8.13;;;;;;;;;;6165180;23;20392;-76
2021/12/21 00:54:10;;;;;;;12.37;7.30;;;;;;;;;;6185982;23;20433;-75
2021/12/21 00:56:36;;;;;;;12.63;7.35;;;;;;;;;;6163052;23;20377;-75
2021/12/21 00:59:03;;;;;;;11.70;7.30;;;;;;;;;;6186449;23;20856;-75
2021/12/21 01:01:29;;;;;;;10.70;6.80;;;;;;;;;;6186675;23;20374;-76
2021/12/21 01:03:57;;;;;;;11.43;6.47;;;;;;;;;;6187924;23;21022;-76
2021/12/21 01:06:37;;;;;;;10.43;6.20;;;;;;;;;;6161233;23;20400;-76
2021/12/21 01:11:34;;;;;;;12.35;6.20;;;;;;;;;;6186909;23;20374;-75
2021/12/21 01:16:49;;;;;;;11.57;6.23;;;;;;;;;;6187614;23;20418;-76
2021/12/21 01:19:20;;;;;;;11.43;6.30;;;;;;;;;;6162753;23;20922;-76
2021/12/21 01:21:59;;;;;;;12.80;7.72;;;;;;;;;;6187394;23;20365;-75
2021/12/21 01:27:21;;;;;;;22.98;12.73;;;;;;;;;;6187211;23;20377;-76
2021/12/21 01:30:01;;;;;;;30.48;17.40;;;;;;;;;;6169110;23;20433;-76
2021/12/21 01:37:48;;;;;;;26.65;15.70;;;;;;;;;;6190925;23;20395;-75
2021/12/21 01:50:59;;;;;;;18.33;9.77;;;;;;;;;;6190034;23;20372;-75
2021/12/21 01:53:25;;;;;;;17.05;10.20;;;;;;;;;;6165353;23;20378;-76
2021/12/21 01:55:51;;;;;;;15.38;8.90;;;;;;;;;;6191035;23;20853;-75
2021/12/21 01:58:18;;;;;;;15.30;9.13;;;;;;;;;;6190057;23;20386;-75
2021/12/21 02:00:44;;;;;;;20.27;11.38;;;;;;;;;;6191031;23;20873;-75
2021/12/21 02:03:10;;;;;;;25.35;13.90;;;;;;;;;;6190880;23;20375;-75
2021/12/21 02:05:36;;;;;;;21.27;12.52;;;;;;;;;;6190354;23;20421;-75
2021/12/21 02:08:03;;;;;;;19.20;11.27;;;;;;;;;;6190964;23;20363;-76
2021/12/21 02:10:29;;;;;;;15.60;9.05;;;;;;;;;;6189372;23;20368;-76
2021/12/21 02:12:55;;;;;;;11.88;7.03;;;;;;;;;;6166377;23;20378;-75
2021/12/21 02:15:24;;;;;;;13.15;7.35;;;;;;;;;;6188972;23;20372;-75
2021/12/21 02:21:16;;;;;;;11.93;7.45;;;;;;;;;;6189018;23;20996;-75
2021/12/21 02:23:28;;;;;;;12.82;7.78;;;;;;;;;;6172231;23;20456;-76
2021/12/21 02:28:46;;;;;;;12.90;7.47;;;;;;;;;;6167545;23;20448;-75
2021/12/21 02:31:13;;;;;;;12.30;8.38;;;;;;;;;;6111970;23;1814446;-76
2021/12/21 02:33:39;;;;;;;15.13;8.18;;;;;;;;;;6191106;23;20378;-76
2021/12/21 02:36:06;;;;;;;13.77;8.25;;;;;;;;;;6171172;23;20406;-75
2021/12/21 02:38:32;;;;;;;14.38;8.95;;;;;;;;;;6174596;23;20398;-76
2021/12/21 02:40:58;;;;;;;16.40;8.35;;;;;;;;;;6191894;23;20817;-75
2021/12/21 02:43:28;;;;;;;12.50;8.05;;;;;;;;;;6142390;23;20376;-75
2021/12/21 02:45:54;;;;;;;14.25;7.85;;;;;;;;;;6191340;23;20396;-74
2021/12/21 02:48:20;;;;;;;13.32;8.35;;;;;;;;;;6191144;23;20371;-75
2021/12/21 02:50:46;;;;;;;13.60;7.57;;;;;;;;;;6189068;23;20379;-75
2021/12/21 02:53:12;;;;;;;12.60;8.05;;;;;;;;;;6193187;23;20784;-76
2021/12/21 02:55:39;;;;;;;14.85;7.97;;;;;;;;;;6192653;23;20379;-76
2021/12/21 02:58:05;;;;;;;15.50;9.07;;;;;;;;;;6191518;23;20705;-75
2021/12/21 03:00:32;;;;;;;13.40;7.93;;;;;;;;;;6193118;23;20378;-75
2021/12/21 03:03:06;;;;;;;14.93;8.40;;;;;;;;;;6169127;23;20364;-75
2021/12/21 03:05:32;;;;;;;14.43;8.77;;;;;;;;;;6168993;23;20444;-75
2021/12/21 03:10:26;;;;;;;15.27;8.77;;;;;;;;;;6193067;23;20371;-76
2021/12/21 03:15:19;;;;;;;13.45;8.55;;;;;;;;;;6193310;23;20376;-75
2021/12/21 03:17:45;;;;;;;16.07;8.77;;;;;;;;;;6193521;23;20461;-76
2021/12/21 03:20:11;;;;;;;14.52;8.35;;;;;;;;;;6167770;23;20367;-74
2021/12/21 03:22:37;;;;;;;12.45;8.10;;;;;;;;;;6168198;23;20380;-75
2021/12/21 03:25:04;;;;;;;14.38;8.48;;;;;;;;;;6192456;23;20391;-75
2021/12/21 03:27:30;;;;;;;13.73;8.60;;;;;;;;;;6192261;23;20718;-76
2021/12/21 03:29:56;;;;;;;13.07;8.30;;;;;;;;;;6193788;23;20391;-76
2021/12/21 03:32:22;;;;;;;13.35;8.18;;;;;;;;;;6167951;23;20376;-76
2021/12/21 03:34:49;;;;;;;13.57;8.00;;;;;;;;;;6169116;23;20376;-75
2021/12/21 03:37:15;;;;;;;15.20;8.00;;;;;;;;;;6192163;23;20425;-76
2021/12/21 03:39:42;;;;;;;12.05;7.43;;;;;;;;;;6168982;23;20589;-76
2021/12/21 03:42:09;;;;;;;13.07;7.70;;;;;;;;;;6193025;23;20379;-76
2021/12/21 03:44:35;;;;;;;12.48;7.20;;;;;;;;;;6192933;23;20734;-75
2021/12/21 03:47:01;;;;;;;11.70;7.10;;;;;;;;;;6190910;23;20459;-76
2021/12/21 03:52:02;;;;;;;15.07;8.75;;;;;;;;;;6192787;23;20433;-75
2021/12/21 03:54:28;;;;;;;11.43;7.57;;;;;;;;;;6195389;23;20764;-76
2021/12/21 03:56:54;;;;;;;14.00;8.15;;;;;;;;;;6194857;23;20372;-75
2021/12/21 03:59:21;;;;;;;13.48;8.10;;;;;;;;;;6196030;23;20400;-75
2021/12/21 04:01:48;;;;;;;13.75;7.80;;;;;;;;;;6192292;23;20978;-75
2021/12/21 04:04:17;;;;;;;18.77;8.00;;;;;;;;;;6170855;23;20395;-77
2021/12/21 04:06:43;;;;;;;12.32;7.55;;;;;;;;;;6196243;23;20464;-76
2021/12/21 04:09:09;;;;;;;13.33;7.80;;;;;;;;;;6199039;23;20479;-76
2021/12/21 04:11:35;;;;;;;14.38;7.80;;;;;;;;;;6197363;23;20443;-75
2021/12/21 04:14:02;;;;;;;13.13;7.90;;;;;;;;;;6198977;23;20371;-76
2021/12/21 04:16:28;;;;;;;14.95;7.55;;;;;;;;;;6174996;23;20383;-76
2021/12/21 04:18:54;;;;;;;10.85;6.90;;;;;;;;;;6198188;23;20376;-76
2021/12/21 04:21:20;;;;;;;15.90;7.78;;;;;;;;;;6148622;23;20367;-76
2021/12/21 04:23:46;;;;;;;12.23;7.43;;;;;;;;;;6171032;23;20379;-76
2021/12/21 04:26:13;;;;;;;13.77;7.72;;;;;;;;;;6173130;23;20410;-76
2021/12/21 04:28:40;;;;;;;14.00;8.43;;;;;;;;;;6195106;23;20382;-77
2021/12/21 04:31:06;;;;;;;12.88;7.70;;;;;;;;;;6163552;23;20381;-76
2021/12/21 04:33:33;;;;;;;12.63;8.07;;;;;;;;;;6162667;23;20384;-76
2021/12/21 04:35:59;;;;;;;15.23;8.27;;;;;;;;;;6187100;23;20373;-76
2021/12/21 04:38:30;;;;;;;18.55;8.90;;;;;;;;;;6163435;23;20388;-77
2021/12/21 04:41:05;;;;;;;13.60;8.27;;;;;;;;;;6187462;23;20460;-76
2021/12/21 04:43:31;;;;;;;12.93;8.25;;;;;;;;;;6186530;23;20490;-76
2021/12/21 04:45:57;;;;;;;11.93;7.40;;;;;;;;;;6163232;23;20397;-76
2021/12/21 04:48:23;;;;;;;12.32;7.65;;;;;;;;;;6187594;23;20375;-77
2021/12/21 04:50:49;;;;;;;13.30;7.82;;;;;;;;;;6163407;23;20375;-76
2021/12/21 04:53:16;;;;;;;15.07;8.07;;;;;;;;;;6136200;23;20369;-76
2021/12/21 04:55:42;;;;;;;14.57;8.27;;;;;;;;;;6138902;23;21006;-76
2021/12/21 04:58:08;;;;;;;15.75;8.82;;;;;;;;;;6187154;23;20470;-77
2021/12/21 05:00:35;;;;;;;14.85;8.65;;;;;;;;;;6164348;23;20381;-77
2021/12/21 05:03:01;;;;;;;13.55;8.40;;;;;;;;;;6139546;23;20429;-77
2021/12/21 05:05:27;;;;;;;13.82;8.60;;;;;;;;;;6163512;23;20397;-77
2021/12/21 05:08:06;;;;;;;13.07;8.70;;;;;;;;;;6163716;23;20441;-77
2021/12/21 05:10:37;;;;;;;14.82;8.93;;;;;;;;;;6185820;23;20462;-77
2021/12/21 05:13:04;;;;;;;16.70;9.50;;;;;;;;;;6162356;23;20442;-77
2021/12/21 05:15:30;;;;;;;14.50;8.88;;;;;;;;;;6185682;23;20370;-77
2021/12/21 05:17:56;;;;;;;16.15;9.10;;;;;;;;;;6163192;23;20376;-77
2021/12/21 05:20:22;;;;;;;16.83;9.52;;;;;;;;;;6186160;23;20385;-77
2021/12/21 05:22:48;;;;;;;15.45;8.15;;;;;;;;;;6162482;23;20377;-77
2021/12/21 05:25:15;;;;;;;12.02;8.07;;;;;;;;;;6137426;23;20401;-77
2021/12/21 05:27:41;;;;;;;15.38;9.18;;;;;;;;;;6160928;23;20373;-77
2021/12/21 05:30:07;;;;;;;16.02;8.80;;;;;;;;;;6137485;23;20890;-77
2021/12/21 05:32:33;;;;;;;14.48;9.05;;;;;;;;;;6162504;23;20369;-77
2021/12/21 05:34:59;;;;;;;15.43;9.53;;;;;;;;;;6137798;23;20365;-77
2021/12/21 05:37:25;;;;;;;15.43;8.98;;;;;;;;;;6186604;23;20884;-77
2021/12/21 05:40:09;;;;;;;16.20;9.33;;;;;;;;;;6161332;23;20468;-78
2021/12/21 05:42:35;;;;;;;14.90;9.55;;;;;;;;;;6166408;23;20427;-77
2021/12/21 05:45:01;;;;;;;17.63;9.85;;;;;;;;;;6161142;23;20397;-77
2021/12/21 05:47:27;;;;;;;16.23;9.90;;;;;;;;;;6162794;23;20402;-77
2021/12/21 05:49:53;;;;;;;17.50;10.27;;;;;;;;;;6161505;23;20380;-77
2021/12/21 05:52:20;;;;;;;17.90;10.65;;;;;;;;;;6162994;23;20374;-78
2021/12/21 05:54:46;;;;;;;18.38;10.30;;;;;;;;;;6160035;23;20377;-78
2021/12/21 05:57:12;;;;;;;18.20;10.77;;;;;;;;;;6137399;23;20369;-79
2021/12/21 05:59:38;;;;;;;16.77;10.40;;;;;;;;;;6161988;23;20377;-78
2021/12/21 06:02:04;;;;;;;16.50;9.88;;;;;;;;;;6160313;23;20420;-78
2021/12/21 06:04:30;;;;;;;17.70;10.00;;;;;;;;;;6137368;23;20484;-78
2021/12/21 06:06:56;;;;;;;17.58;9.90;;;;;;;;;;6161991;23;20695;-77
2021/12/21 06:09:23;;;;;;;17.47;10.27;;;;;;;;;;6187030;23;20369;-78
2021/12/21 06:14:56;;;;;;;18.75;9.93;;;;;;;;;;6185424;23;21023;-79
2021/12/21 06:22:53;;;;;;;14.50;9.68;;;;;;;;;;6186282;23;20431;-79
2021/12/21 06:25:25;;;;;;;17.93;10.13;;;;;;;;;;6161859;23;20483;-78
2021/12/21 06:27:51;;;;;;;14.63;9.85;;;;;;;;;;6187941;23;20900;-78
2021/12/21 06:30:18;;;;;;;17.75;9.85;;;;;;;;;;6161896;23;20384;-78
2021/12/21 06:32:44;;;;;;;18.20;10.50;;;;;;;;;;6187773;23;20376;-78
2021/12/21 06:35:11;;;;;;;18.85;10.10;;;;;;;;;;6138687;23;20640;-79
2021/12/21 06:37:37;;;;;;;18.40;10.35;;;;;;;;;;6163454;23;20437;-78
2021/12/21 06:40:03;;;;;;;20.02;10.85;;;;;;;;;;6187179;23;20373;-79
2021/12/21 06:42:30;;;;;;;17.02;10.68;;;;;;;;;;6164251;23;20492;-78
2021/12/21 06:44:59;;;;;;;19.70;11.55;;;;;;;;;;6161454;23;20373;-79
2021/12/21 06:52:55;;;;;;;22.10;12.63;;;;;;;;;;6187129;23;20385;-79
2021/12/21 06:55:21;;;;;;;18.75;12.18;;;;;;;;;;6162624;23;20381;-78
2021/12/21 06:57:47;;;;;;;18.48;12.05;;;;;;;;;;6138288;23;20890;-78
2021/12/21 07:00:14;;;;;;;25.20;12.88;;;;;;;;;;6160858;23;20381;-78
2021/12/21 07:02:41;;;;;;;21.60;12.93;;;;;;;;;;6160594;23;20424;-78
2021/12/21 07:05:08;;;;;;;24.73;12.93;;;;;;;;;;6188479;23;20411;-78
2021/12/21 07:07:34;;;;;;;17.92;12.13;;;;;;;;;;6138998;23;20766;-78
2021/12/21 07:10:04;;;;;;;20.60;13.30;;;;;;;;;;6163162;23;20763;-79
2021/12/21 07:18:00;;;;;;;19.23;12.68;;;;;;;;;;6188566;23;20426;-79
2021/12/21 07:20:54;;;;;;;20.77;12.00;;;;;;;;;;6184708;23;20506;-78
2021/12/21 07:23:20;;;;;;;20.25;12.57;;;;;;;;;;6164456;23;20415;-78
2021/12/21 07:25:47;;;;;;;20.63;12.38;;;;;;;;;;6165712;23;20404;-78
2021/12/21 07:28:13;;;;;;;23.40;12.77;;;;;;;;;;6138112;23;20775;-78
2021/12/21 07:30:39;;;;;;;21.05;12.30;;;;;;;;;;6188038;23;20396;-78
2021/12/21 07:33:06;;;;;;;20.37;12.67;;;;;;;;;;6138244;23;20377;-77
2021/12/21 07:35:32;;;;;;;26.48;14.82;;;;;;;;;;6163674;23;20436;-77
2021/12/21 07:38:00;;;;;;;21.58;13.52;;;;;;;;;;6163895;23;20372;-77
2021/12/21 07:40:26;;;;;;;27.15;15.48;;;;;;;;;;6186341;23;20381;-77
2021/12/21 07:42:52;;;;;;;21.70;14.17;;;;;;;;;;6162500;23;20365;-78
2021/12/21 07:45:18;;;;;;;25.33;15.05;;;;;;;;;;6162017;23;20396;-78
2021/12/21 07:47:44;;;;;;;30.00;17.27;;;;;;;;;;6187920;23;20778;-78
2021/12/21 07:50:11;;;;;;;28.17;15.65;;;;;;;;;;6187817;23;20366;-77
2021/12/21 07:52:38;;;;;;;30.05;16.15;;;;;;;;;;6186429;23;20417;-78
2021/12/21 07:55:05;;;;;;;26.13;16.10;;;;;;;;;;6162938;23;20433;-78
2021/12/21 07:57:32;;;;;;;32.80;17.45;;;;;;;;;;6184897;23;20408;-78
2021/12/21 07:59:58;;;;;;;26.80;16.15;;;;;;;;;;6164035;23;20994;-78
2021/12/21 08:02:27;;;;;;;29.27;15.73;;;;;;;;;;6187251;23;20373;-78
2021/12/21 08:04:53;;;;;;;27.17;15.75;;;;;;;;;;6187861;23;20423;-77
2021/12/21 08:07:24;;;;;;;25.95;15.35;;;;;;;;;;6187197;23;20748;-77
2021/12/21 08:09:54;;;;;;;25.70;14.52;;;;;;;;;;6186321;23;20430;-78
2021/12/21 08:12:21;;;;;;;23.63;14.55;;;;;;;;;;6163904;23;20397;-78
2021/12/21 08:14:49;;;;;;;25.55;14.13;;;;;;;;;;6186360;23;20427;-78
2021/12/21 08:17:15;;;;;;;24.77;14.85;;;;;;;;;;6188602;23;20427;-78
2021/12/21 08:19:41;;;;;;;23.88;15.98;;;;;;;;;;6161497;23;20373;-78
2021/12/21 08:22:08;;;;;;;24.42;16.52;;;;;;;;;;6163487;23;20377;-78
2021/12/21 08:24:34;;;;;;;21.93;14.90;;;;;;;;;;6136869;23;20377;-78
2021/12/21 08:27:03;;;;;;;24.38;16.17;;;;;;;;;;6187617;23;20483;-78
2021/12/21 08:29:29;;;;;;;33.28;19.65;;;;;;;;;;6184772;23;20386;-78
2021/12/21 08:31:55;;;;;;;31.67;20.80;;;;;;;;;;6186482;23;20931;-78
2021/12/21 08:34:22;;;;;;;29.50;18.80;;;;;;;;;;6186393;23;20451;-78
2021/12/21 08:36:49;;;;;;;29.08;18.02;;;;;;;;;;6162306;23;20675;-79
2021/12/21 08:39:16;;;;;;;30.23;19.20;;;;;;;;;;6187340;23;20401;-78
2021/12/21 08:41:44;;;;;;;26.97;17.97;;;;;;;;;;6161350;23;20467;-78
2021/12/21 08:44:11;;;;;;;25.37;17.20;;;;;;;;;;6186523;23;20367;-79
2021/12/21 08:46:41;;;;;;;34.33;18.20;;;;;;;;;;6187413;23;20428;-78
2021/12/21 08:49:07;;;;;;;29.92;17.85;;;;;;;;;;6160713;23;20830;-79
2021/12/21 08:51:33;;;;;;;30.75;18.25;;;;;;;;;;6161999;23;20696;-78
2021/12/21 08:53:59;;;;;;;31.88;18.75;;;;;;;;;;6136658;23;20370;-78
2021/12/21 08:56:25;;;;;;;29.23;18.40;;;;;;;;;;6138546;23;20369;-79
2021/12/21 08:58:51;;;;;;;31.67;17.67;;;;;;;;;;6135326;23;20439;-79
2021/12/21 09:01:17;;;;;;;30.10;19.17;;;;;;;;;;6152386;23;20412;-78
2021/12/21 09:03:45;;;;;;;30.70;19.80;;;;;;;;;;6157600;23;20373;-78
2021/12/21 09:06:11;;;;;;;34.70;20.70;;;;;;;;;;6159698;23;20878;-76
2021/12/21 09:08:37;;;;;;;30.48;20.98;;;;;;;;;;6160970;23;20373;-76
2021/12/21 09:11:05;;;;;;;34.33;20.70;;;;;;;;;;6187406;23;20387;-75
2021/12/21 09:13:32;;;;;;;37.05;21.27;;;;;;;;;;6162032;23;20400;-75
2021/12/21 09:15:58;;;;;;;32.08;20.55;;;;;;;;;;6161007;23;20378;-74
2021/12/21 09:18:25;;;;;;;33.03;19.55;;;;;;;;;;6159555;23;20369;-78
2021/12/21 09:20:51;;;;;;;29.73;19.87;;;;;;;;;;6151616;23;20407;-77
2021/12/21 09:23:17;;;;;;;34.80;20.42;;;;;;;;;;6179497;23;20377;-77
2021/12/21 09:25:43;;;;;;;30.90;20.17;;;;;;;;;;6156425;23;20779;-77
2021/12/21 09:28:10;;;;;;;31.60;20.13;;;;;;;;;;6157364;23;20469;-77
2021/12/21 09:30:36;;;;;;;29.75;19.60;;;;;;;;;;6191384;23;20661;-77
2021/12/21 09:33:02;;;;;;;31.80;20.20;;;;;;;;;;6199515;23;20420;-76
2021/12/21 09:35:28;;;;;;;32.70;23.33;;;;;;;;;;6194814;23;20377;-76
2021/12/21 09:37:55;;;;;;;30.10;19.38;;;;;;;;;;6143199;23;20374;-77
2021/12/21 09:40:23;;;;;;;28.00;19.13;;;;;;;;;;6163643;23;20823;-77
2021/12/21 09:42:50;;;;;;;32.40;19.63;;;;;;;;;;6162689;23;20405;-76
2021/12/21 09:45:16;;;;;;;27.95;17.98;;;;;;;;;;6184900;23;20531;-76
2021/12/21 09:47:42;;;;;;;28.77;17.98;;;;;;;;;;6138456;23;20374;-77
2021/12/21 09:50:13;;;;;;;29.77;18.10;;;;;;;;;;6161842;23;20408;-76
2021/12/21 09:52:39;;;;;;;24.17;17.05;;;;;;;;;;6162374;23;20365;-76
2021/12/21 09:55:07;;;;;;;25.15;17.10;;;;;;;;;;6160416;23;20684;-78
2021/12/21 09:57:34;;;;;;;26.27;15.68;;;;;;;;;;6161347;23;20437;-75
2021/12/21 10:00:00;;;;;;;28.38;16.80;;;;;;;;;;6162428;23;20416;-77
2021/12/21 10:02:27;;;;;;;24.48;15.10;;;;;;;;;;6162869;23;20369;-78
2021/12/21 10:04:57;;;;;;;23.67;16.00;;;;;;;;;;6163745;23;20368;-76
2021/12/21 10:07:23;;;;;;;25.90;15.30;;;;;;;;;;6164799;23;20381;-76
2021/12/21 10:09:52;;;;;;;23.60;15.13;;;;;;;;;;6162651;23;20835;-77
2021/12/21 10:12:29;;;;;;;24.73;15.18;;;;;;;;;;6140826;23;20369;-77
2021/12/21 10:15:03;;;;;;;26.77;14.15;;;;;;;;;;6186267;23;20384;-76
2021/12/21 10:17:32;;;;;;;22.52;13.68;;;;;;;;;;6164672;23;20377;-77
2021/12/21 10:19:59;;;;;;;20.27;13.70;;;;;;;;;;6140352;23;20365;-77
2021/12/21 10:22:25;;;;;;;22.63;14.05;;;;;;;;;;6164395;23;20496;-77
2021/12/21 10:24:52;;;;;;;20.13;13.65;;;;;;;;;;6138337;23;20374;-76
2021/12/21 10:27:19;;;;;;;26.27;14.10;;;;;;;;;;6163000;23;20373;-76
2021/12/21 10:29:53;;;;;;;24.65;13.82;;;;;;;;;;6190482;23;20447;-77
2021/12/21 10:32:20;;;;;;;24.17;14.95;;;;;;;;;;6167684;23;20387;-78
2021/12/21 10:34:54;;;;;;;23.13;14.38;;;;;;;;;;6194632;23;20376;-78
2021/12/21 10:37:27;;;;;;;22.10;14.63;;;;;;;;;;6169164;23;20367;-77
2021/12/21 10:40:27;;;;;;;21.60;13.60;;;;;;;;;;6192537;23;20390;-79
2021/12/21 10:42:53;;;;;;;21.33;13.50;;;;;;;;;;6143892;23;20380;-78
2021/12/21 10:45:23;;;;;;;20.33;13.10;;;;;;;;;;6165814;23;20403;-78
2021/12/21 10:47:49;;;;;;;23.58;13.25;;;;;;;;;;6192885;23;20378;-78
2021/12/21 10:50:16;;;;;;;21.13;11.13;;;;;;;;;;6145453;23;20374;-78
2021/12/21 10:52:52;;;;;;;17.48;10.88;;;;;;;;;;6167516;23;20375;-78
2021/12/21 10:55:35;;;;;;;15.80;10.23;;;;;;;;;;6168859;23;20378;-80
2021/12/21 10:58:01;;;;;;;18.95;11.25;;;;;;;;;;6191827;23;20380;-77
2021/12/21 11:00:27;;;;;;;17.50;10.20;;;;;;;;;;6193902;23;20378;-77
2021/12/21 11:02:54;;;;;;;16.33;9.63;;;;;;;;;;6167508;23;20398;-77
2021/12/21 11:05:21;;;;;;;15.63;9.52;;;;;;;;;;6192992;23;20832;-79
2021/12/21 11:08:04;;;;;;;16.23;10.20;;;;;;;;;;6192958;23;20379;-78
2021/12/21 11:10:34;;;;;;;16.55;10.25;;;;;;;;;;6170020;23;20379;-76
2021/12/21 11:13:08;;;;;;;18.50;10.30;;;;;;;;;;6167927;23;20380;-77
2021/12/21 11:15:38;;;;;;;16.90;10.38;;;;;;;;;;6192887;23;20368;-79
2021/12/21 11:18:18;;;;;;;18.08;10.05;;;;;;;;;;6168281;23;20458;-78
2021/12/21 11:20:48;;;;;;;17.45;10.30;;;;;;;;;;6192969;23;20769;-79
2021/12/21 11:23:15;;;;;;;16.65;9.75;;;;;;;;;;6190921;23;21141;-78
2021/12/21 11:25:42;;;;;;;15.68;9.38;;;;;;;;;;6169862;23;20474;-78
2021/12/21 11:28:08;;;;;;;16.02;9.43;;;;;;;;;;6165662;23;20705;-77
2021/12/21 11:30:35;;;;;;;14.85;8.88;;;;;;;;;;6169218;23;20382;-79
2021/12/21 11:33:02;;;;;;;16.30;9.48;;;;;;;;;;6189440;23;20372;-77
2021/12/21 11:37:59;;;;;;;17.53;8.50;;;;;;;;;;6192015;23;20939;-77
2021/12/21 11:40:27;;;;;;;13.77;7.90;;;;;;;;;;6190469;23;20368;-78
2021/12/21 11:42:56;;;;;;;13.18;8.07;;;;;;;;;;6191835;23;20828;-79
2021/12/21 11:45:23;;;;;;;15.32;9.00;;;;;;;;;;6191339;23;20396;-78
2021/12/21 11:48:15;;;;;;;16.23;9.18;;;;;;;;;;6166944;23;20368;-80
2021/12/21 11:50:43;;;;;;;13.63;8.63;;;;;;;;;;6193416;23;20754;-77
2021/12/21 11:53:12;;;;;;;15.15;9.07;;;;;;;;;;6191134;23;20458;-79
2021/12/21 11:55:42;;;;;;;19.15;9.35;;;3.70;99.90;;;;;;6178741;23;20431;-78
2021/12/21 11:58:25;;;;;;;20.25;10.10;;;;;;;;;;6203288;23;20403;-78
2021/12/21 12:00:56;;;;;;;19.35;9.45;;;;;;;;;;6201783;23;20386;-78
2021/12/21 12:03:24;;;;;;;17.38;9.63;;;;;;;;;;6172429;23;20368;-77
2021/12/21 12:05:52;;;;;;;14.82;9.00;;;;;;;;;;6193566;23;20395;-78
2021/12/21 12:08:18;;;;;;;16.08;8.85;;;;;;;;;;6169267;23;20372;-77
2021/12/21 12:10:55;;;;;;;14.77;9.23;;;;;;;;;;6166221;23;20364;-77
2021/12/21 12:13:31;;;;;;;14.35;8.40;;;5.10;99.90;;;;;;6168709;23;20411;-77
2021/12/21 12:15:59;;;;;;;14.38;9.07;;;;;;;;;;6167582;23;20383;-76
2021/12/21 12:18:29;;;;;;;15.40;9.10;;;;;;;;;;6191725;23;20375;-77
2021/12/21 12:20:56;;;;;;;13.45;9.07;;;;;;;;;;6192395;23;20865;-84
2021/12/21 12:23:22;;;;;;;17.15;9.55;;;;;;;;;;6188619;23;20375;-77
2021/12/21 12:25:50;;;;;;;14.68;8.63;;;;;;;;;;6166710;23;20398;-76
2021/12/21 12:28:23;;;;;;;15.15;8.85;;;;;;;;;;6190993;23;20391;-76
2021/12/21 12:30:50;;;;;;;13.43;8.35;;;;;;;;;;6165790;23;20921;-77
2021/12/21 12:33:16;;;;;;;16.70;9.40;;;;;;;;;;6167532;23;20682;-76
2021/12/21 12:35:43;;;;;;;17.63;9.57;;;;;;;;;;6190647;23;20368;-76
2021/12/21 12:38:12;;;;;;;17.35;9.10;;;;;;;;;;6168355;23;20377;-77
2021/12/21 12:40:43;;;;;;;74.38;15.27;;;;;;;;;;6191900;23;20451;-77
2021/12/21 12:43:12;;;;;;;15.38;8.10;;;;;;;;;;6192012;23;20454;-77
2021/12/21 12:45:41;;;;;;;17.27;8.57;;;;;;;;;;6192103;23;20510;-77
2021/12/21 12:48:22;;;;;;;11.85;7.65;;;;;;;;;;6167639;23;20380;-77
2021/12/21 12:50:48;;;;;;;16.05;8.40;;;;;;;;;;6168189;23;20403;-77
2021/12/21 12:53:14;;;;;;;15.60;8.60;;;;;;;;;;6166597;23;20367;-77
2021/12/21 12:55:44;;;;;;;17.48;9.20;;;;;;;;;;6191904;23;20372;-77
2021/12/21 12:58:21;;;;;;;18.35;9.80;;;;;;;;;;6192019;23;20499;-77
2021/12/21 13:00:56;;;;;;;14.07;9.50;;;;;;;;;;6192334;23;20454;-76
2021/12/21 13:03:30;;;;;;;16.80;9.65;;;;;;;;;;6192807;23;20947;-76
2021/12/21 13:05:57;;;;;;;15.48;9.45;;;;;;;;;;6191075;23;20419;-76
2021/12/21 13:08:26;;;;;;;18.38;10.15;;;;;;;;;;6193067;23;20378;-76
2021/12/21 13:10:55;;;;;;;17.38;9.52;;;;;;;;;;6192585;23;20379;-75
2021/12/21 13:13:30;;;;;;;18.27;9.95;;;;;;;;;;6193805;23;20368;-78
2021/12/21 13:15:56;;;;;;;22.25;10.18;;;;;;;;;;6168469;23;20379;-77
2021/12/21 13:18:22;;;;;;;17.60;10.38;;;;;;;;;;6168901;23;20369;-78
2021/12/21 13:20:50;;;;;;;20.75;12.40;;;;;;;;;;6169480;23;20406;-78
2021/12/21 13:23:16;;;;;;;16.93;9.60;;;;;;;;;;6192233;23;20473;-83
2021/12/21 13:26:01;;;;;;;14.43;9.27;;;;;;;;;;6168133;23;20455;-78
2021/12/21 13:28:30;;;;;;;14.43;8.50;;;;;;;;;;6193595;23;20379;-79
2021/12/21 13:30:58;;;;;;;16.20;8.27;;;;;;;;;;6191539;23;20399;-79
2021/12/21 13:33:26;;;;;;;15.02;7.38;;;;;;;;;;6169128;23;20382;-78
2021/12/21 13:35:54;;;;;;;13.23;6.90;;;;;;;;;;6191949;23;20372;-78
2021/12/21 13:38:21;;;;;;;12.73;6.88;;;;;;;;;;6169500;23;20371;-77
2021/12/21 13:41:07;;;;;;;14.77;7.60;;;;;;;;;;6167626;23;20382;-77
2021/12/21 13:43:34;;;;;;;15.50;8.45;;;;;;;;;;6194308;23;20392;-77
2021/12/21 13:46:01;;;;;;;13.53;8.17;;;;;;;;;;6193411;23;20457;-77
2021/12/21 13:48:28;;;;;;;14.75;8.68;;;;;;;;;;6192876;23;20407;-77
2021/12/21 13:50:54;;;;;;;15.95;9.70;;;;;;;;;;6192226;23;20378;-77
2021/12/21 13:53:21;;;;;;;17.10;10.07;;;;;;;;;;6190965;23;20435;-77
2021/12/21 13:55:50;;;;;;;15.00;8.93;;;;;;;;;;6143295;23;20379;-76
2021/12/21 13:58:17;;;;;;;14.60;10.10;;;;;;;;;;6167069;23;20403;-75
2021/12/21 14:00:44;;;;;;;17.88;9.43;;;;;;;;;;6167757;23;20390;-76
2021/12/21 14:05:57;;;;;;;17.63;10.45;;;;;;;;;;6190705;23;20486;-76
2021/12/21 14:08:24;;;;;;;16.45;10.10;;;;;;;;;;6169467;23;20372;-77
2021/12/21 14:10:51;;;;;;;14.85;9.75;;;;;;;;;;6141123;23;20406;-76
2021/12/21 14:13:18;;;;;;;17.27;9.83;;;;;;;;;;6168072;23;20498;-77
2021/12/21 14:15:45;;;;;;;16.25;9.70;;;;;;;;;;6167727;23;20375;-77
2021/12/21 14:18:16;;;;;;;14.77;8.87;;;;;;;;;;6168485;23;20368;-77
2021/12/21 14:20:42;;;;;;;16.92;10.30;;;;;;;;;;6192195;23;20376;-77
2021/12/21 14:23:08;;;;;;;16.30;10.50;;;;;;;;;;6192225;23;20799;-77
2021/12/21 14:25:34;;;;;;;16.98;10.55;;;;;;;;;;6199031;23;20471;-77
2021/12/21 14:28:10;;;;;;;14.48;9.38;;;;;;;;;;6182716;23;20412;-76
2021/12/21 14:30:36;;;;;;;15.57;9.23;;;;;;;;;;6154774;23;20396;-77
2021/12/21 14:36:09;;;;;;;18.55;9.30;;;;;;;;;;6128165;23;20379;-77
2021/12/21 14:38:36;;;;;;;17.55;9.77;;;;;;;;;;6143262;23;20372;-78
2021/12/21 14:41:05;;;;;;;18.15;10.18;;;;;;;;;;6189417;23;20872;-78
2021/12/21 14:43:31;;;;;;;19.90;9.93;;;;;;;;;;6168075;23;20371;-79
2021/12/21 14:45:58;;;;;;;17.30;10.10;;;;;;;;;;6166725;23;20418;-77
2021/12/21 14:48:28;;;;;;;16.70;10.33;;;;;;;;;;6142921;23;20944;-78
2021/12/21 14:51:10;;;;;;;18.98;10.57;;;;;;;;;;6169527;23;20431;-77
2021/12/21 14:53:46;;;;;;;18.65;11.15;;;;;;;;;;6168101;23;20862;-77
2021/12/21 14:56:13;;;;;;;19.08;11.48;;;;;;;;;;6168672;23;20446;-78
2021/12/21 14:58:39;;;;;;;19.35;10.98;;;;;;;;;;6193933;23;20379;-78
2021/12/21 15:01:05;;;;;;;18.00;11.15;;;;;;;;;;6191975;23;20376;-78
2021/12/21 15:03:41;;;;;;;20.13;11.90;;;;;;;;;;6193128;23;20378;-78
2021/12/21 15:06:07;;;;;;;21.55;11.93;;;;;;;;;;6192407;23;20454;-77
2021/12/21 15:08:33;;;;;;;18.50;12.05;;;;;;;;;;6195022;23;20458;-77
2021/12/21 15:11:00;;;;;;;20.70;12.13;;;;;;;;;;6167707;23;20395;-77
2021/12/21 15:13:26;;;;;;;19.57;11.97;;;;;;;;;;6168396;23;20404;-77
2021/12/21 15:15:52;;;;;;;21.92;13.50;;;;;;;;;;6168053;23;20372;-76
2021/12/21 15:18:18;;;;;;;23.55;12.15;;;;;;;;;;6167757;23;20376;-77
2021/12/21 15:20:45;;;;;;;22.67;12.50;;;;;;;;;;6193180;23;20374;-77
2021/12/21 15:23:11;;;;;;;19.05;11.50;;;;;;;;;;6167789;23;20368;-77
2021/12/21 15:25:38;;;;;;;19.27;11.63;;;;;;;;;;6168498;23;20395;-78
2021/12/21 15:28:05;;;;;;;20.52;11.90;;;;;;;;;;6192020;23;20434;-75
2021/12/21 15:30:32;;;;;;;20.88;12.10;;;;;;;;;;6193327;23;20394;-77
2021/12/21 15:32:59;;;;;;;18.52;11.80;;;;;;;;;;6194455;23;20379;-78
2021/12/21 15:35:26;;;;;;;22.58;12.52;;;;;;;;;;6167246;23;20372;-77
2021/12/21 15:37:52;;;;;;;20.80;13.15;;;;;;;;;;6193422;23;20463;-78